Аэропорт: Байкал. Улан-Удэ

ICAO: UIUU

METAR:
2019/03/26 13:00
UIUU 261300Z VRB01MPS 9999 NSC M05/M14 Q1027 R26/CLRD60 NOSIG RMK QFE726/0968
METAR:
2019/03/26 12:21
TAF UIUU 261100Z 2612/2712 31003G08MPS 9999 NSC 
      TEMPO 2614/2703 4000 BR